sensor_id;sensor_type;location;lat;lon;timestamp;P1;durP1;ratioP1;P2;durP2;ratioP2
19800;SDS011;10060;48.274;12.214;2022-12-18T00:01:32;71.87;;;23.67;;
19800;SDS011;10060;48.274;12.214;2022-12-18T00:04:35;69.63;;;23.07;;
19800;SDS011;10060;48.274;12.214;2022-12-18T00:07:38;75.87;;;26.53;;
19800;SDS011;10060;48.274;12.214;2022-12-18T00:10:40;70.33;;;24.80;;
19800;SDS011;10060;48.274;12.214;2022-12-18T00:13:44;77.37;;;25.47;;
19800;SDS011;10060;48.274;12.214;2022-12-18T00:16:47;79.37;;;25.37;;
19800;SDS011;10060;48.274;12.214;2022-12-18T00:19:50;67.30;;;24.67;;
19800;SDS011;10060;48.274;12.214;2022-12-18T00:22:52;72.87;;;25.80;;
19800;SDS011;10060;48.274;12.214;2022-12-18T00:25:54;68.97;;;22.27;;
19800;SDS011;10060;48.274;12.214;2022-12-18T00:28:58;49.53;;;20.70;;
19800;SDS011;10060;48.274;12.214;2022-12-18T00:32:00;68.77;;;26.23;;
19800;SDS011;10060;48.274;12.214;2022-12-18T00:35:04;78.67;;;25.70;;
19800;SDS011;10060;48.274;12.214;2022-12-18T00:38:06;75.10;;;27.90;;
19800;SDS011;10060;48.274;12.214;2022-12-18T00:41:08;72.43;;;24.33;;
19800;SDS011;10060;48.274;12.214;2022-12-18T00:44:11;63.37;;;25.60;;
19800;SDS011;10060;48.274;12.214;2022-12-18T00:47:13;61.47;;;20.93;;
19800;SDS011;10060;48.274;12.214;2022-12-18T00:50:16;65.67;;;26.03;;
19800;SDS011;10060;48.274;12.214;2022-12-18T00:53:18;66.93;;;25.33;;
19800;SDS011;10060;48.274;12.214;2022-12-18T00:56:21;68.30;;;25.37;;
19800;SDS011;10060;48.274;12.214;2022-12-18T00:59:23;64.50;;;24.87;;
19800;SDS011;10060;48.274;12.214;2022-12-18T01:02:25;66.80;;;24.80;;
19800;SDS011;10060;48.274;12.214;2022-12-18T01:05:29;64.73;;;23.07;;
19800;SDS011;10060;48.274;12.214;2022-12-18T01:08:31;63.47;;;22.10;;
19800;SDS011;10060;48.274;12.214;2022-12-18T01:11:33;68.77;;;26.00;;
19800;SDS011;10060;48.274;12.214;2022-12-18T01:14:35;58.13;;;22.23;;
19800;SDS011;10060;48.274;12.214;2022-12-18T01:17:38;65.27;;;23.53;;
19800;SDS011;10060;48.274;12.214;2022-12-18T01:20:41;56.67;;;22.30;;
19800;SDS011;10060;48.274;12.214;2022-12-18T01:23:43;60.10;;;21.70;;
19800;SDS011;10060;48.274;12.214;2022-12-18T01:26:45;63.50;;;24.70;;
19800;SDS011;10060;48.274;12.214;2022-12-18T01:29:48;74.90;;;24.40;;
19800;SDS011;10060;48.274;12.214;2022-12-18T01:32:51;73.57;;;25.30;;
19800;SDS011;10060;48.274;12.214;2022-12-18T01:35:54;73.20;;;26.77;;
19800;SDS011;10060;48.274;12.214;2022-12-18T01:38:56;67.83;;;25.60;;
19800;SDS011;10060;48.274;12.214;2022-12-18T01:42:02;67.00;;;25.17;;
19800;SDS011;10060;48.274;12.214;2022-12-18T01:45:05;70.40;;;23.47;;
19800;SDS011;10060;48.274;12.214;2022-12-18T01:48:08;59.63;;;22.67;;
19800;SDS011;10060;48.274;12.214;2022-12-18T01:51:12;59.30;;;22.93;;
19800;SDS011;10060;48.274;12.214;2022-12-18T01:54:14;59.50;;;22.47;;
19800;SDS011;10060;48.274;12.214;2022-12-18T01:57:16;68.57;;;25.80;;
19800;SDS011;10060;48.274;12.214;2022-12-18T02:00:19;63.73;;;25.20;;
19800;SDS011;10060;48.274;12.214;2022-12-18T02:03:22;63.33;;;22.70;;
19800;SDS011;10060;48.274;12.214;2022-12-18T02:06:26;60.07;;;22.23;;
19800;SDS011;10060;48.274;12.214;2022-12-18T02:09:31;54.97;;;22.27;;
19800;SDS011;10060;48.274;12.214;2022-12-18T02:12:38;51.27;;;19.60;;
19800;SDS011;10060;48.274;12.214;2022-12-18T02:15:44;62.77;;;23.60;;
19800;SDS011;10060;48.274;12.214;2022-12-18T02:18:50;65.90;;;22.53;;
19800;SDS011;10060;48.274;12.214;2022-12-18T02:21:56;66.87;;;24.10;;
19800;SDS011;10060;48.274;12.214;2022-12-18T02:25:05;54.80;;;18.47;;
19800;SDS011;10060;48.274;12.214;2022-12-18T02:28:14;55.83;;;21.73;;
19800;SDS011;10060;48.274;12.214;2022-12-18T02:31:18;69.00;;;23.33;;
19800;SDS011;10060;48.274;12.214;2022-12-18T02:34:24;64.03;;;22.63;;
19800;SDS011;10060;48.274;12.214;2022-12-18T02:37:28;63.23;;;22.90;;
19800;SDS011;10060;48.274;12.214;2022-12-18T02:40:31;60.97;;;22.83;;
19800;SDS011;10060;48.274;12.214;2022-12-18T02:43:35;69.53;;;23.03;;
19800;SDS011;10060;48.274;12.214;2022-12-18T02:46:38;65.40;;;22.50;;
19800;SDS011;10060;48.274;12.214;2022-12-18T02:49:44;58.60;;;20.40;;
19800;SDS011;10060;48.274;12.214;2022-12-18T02:52:54;58.93;;;21.27;;
19800;SDS011;10060;48.274;12.214;2022-12-18T02:56:00;54.67;;;20.07;;
19800;SDS011;10060;48.274;12.214;2022-12-18T02:59:07;52.80;;;20.80;;
19800;SDS011;10060;48.274;12.214;2022-12-18T03:02:14;49.23;;;19.20;;
19800;SDS011;10060;48.274;12.214;2022-12-18T03:05:18;56.50;;;20.60;;
19800;SDS011;10060;48.274;12.214;2022-12-18T03:08:23;61.47;;;21.33;;
19800;SDS011;10060;48.274;12.214;2022-12-18T03:11:26;59.97;;;20.23;;
19800;SDS011;10060;48.274;12.214;2022-12-18T03:14:44;58.53;;;21.17;;
19800;SDS011;10060;48.274;12.214;2022-12-18T03:17:48;59.53;;;22.63;;
19800;SDS011;10060;48.274;12.214;2022-12-18T03:20:53;60.77;;;22.83;;
19800;SDS011;10060;48.274;12.214;2022-12-18T03:23:57;59.93;;;22.63;;
19800;SDS011;10060;48.274;12.214;2022-12-18T03:27:01;57.53;;;20.23;;
19800;SDS011;10060;48.274;12.214;2022-12-18T03:30:07;64.93;;;21.80;;
19800;SDS011;10060;48.274;12.214;2022-12-18T03:33:10;59.10;;;21.80;;
19800;SDS011;10060;48.274;12.214;2022-12-18T03:36:14;58.23;;;21.13;;
19800;SDS011;10060;48.274;12.214;2022-12-18T03:39:16;56.87;;;21.67;;
19800;SDS011;10060;48.274;12.214;2022-12-18T03:42:20;59.80;;;20.37;;
19800;SDS011;10060;48.274;12.214;2022-12-18T03:45:30;55.57;;;20.70;;
19800;SDS011;10060;48.274;12.214;2022-12-18T03:48:36;60.80;;;21.53;;
19800;SDS011;10060;48.274;12.214;2022-12-18T03:51:41;54.33;;;20.80;;
19800;SDS011;10060;48.274;12.214;2022-12-18T03:54:44;61.97;;;21.17;;
19800;SDS011;10060;48.274;12.214;2022-12-18T03:57:47;68.20;;;24.27;;
19800;SDS011;10060;48.274;12.214;2022-12-18T04:00:52;61.47;;;21.17;;
19800;SDS011;10060;48.274;12.214;2022-12-18T04:03:54;59.60;;;21.47;;
19800;SDS011;10060;48.274;12.214;2022-12-18T04:06:57;63.43;;;23.87;;
19800;SDS011;10060;48.274;12.214;2022-12-18T04:10:00;57.93;;;22.43;;
19800;SDS011;10060;48.274;12.214;2022-12-18T04:13:04;50.53;;;19.10;;
19800;SDS011;10060;48.274;12.214;2022-12-18T04:16:08;58.40;;;22.73;;
19800;SDS011;10060;48.274;12.214;2022-12-18T04:19:10;63.63;;;23.63;;
19800;SDS011;10060;48.274;12.214;2022-12-18T04:22:12;48.90;;;16.73;;
19800;SDS011;10060;48.274;12.214;2022-12-18T04:25:14;50.43;;;18.93;;
19800;SDS011;10060;48.274;12.214;2022-12-18T04:28:16;60.43;;;21.73;;
19800;SDS011;10060;48.274;12.214;2022-12-18T04:31:20;54.20;;;19.70;;
19800;SDS011;10060;48.274;12.214;2022-12-18T04:34:22;56.23;;;18.80;;
19800;SDS011;10060;48.274;12.214;2022-12-18T04:37:24;63.40;;;21.77;;
19800;SDS011;10060;48.274;12.214;2022-12-18T04:40:26;61.70;;;22.73;;
19800;SDS011;10060;48.274;12.214;2022-12-18T04:43:28;64.17;;;21.83;;
19800;SDS011;10060;48.274;12.214;2022-12-18T04:46:34;57.03;;;19.60;;
19800;SDS011;10060;48.274;12.214;2022-12-18T04:49:36;56.90;;;20.67;;
19800;SDS011;10060;48.274;12.214;2022-12-18T04:52:38;56.77;;;20.20;;
19800;SDS011;10060;48.274;12.214;2022-12-18T04:55:40;40.53;;;15.83;;
19800;SDS011;10060;48.274;12.214;2022-12-18T04:58:43;50.53;;;18.93;;
19800;SDS011;10060;48.274;12.214;2022-12-18T05:01:47;61.10;;;23.03;;
19800;SDS011;10060;48.274;12.214;2022-12-18T05:04:49;65.47;;;22.07;;
19800;SDS011;10060;48.274;12.214;2022-12-18T05:07:51;65.90;;;22.83;;
19800;SDS011;10060;48.274;12.214;2022-12-18T05:10:58;59.80;;;20.57;;
19800;SDS011;10060;48.274;12.214;2022-12-18T05:14:00;46.47;;;18.70;;
19800;SDS011;10060;48.274;12.214;2022-12-18T05:17:04;59.40;;;21.63;;
19800;SDS011;10060;48.274;12.214;2022-12-18T05:20:06;57.83;;;21.73;;
19800;SDS011;10060;48.274;12.214;2022-12-18T05:23:08;63.77;;;22.07;;
19800;SDS011;10060;48.274;12.214;2022-12-18T05:26:11;64.43;;;23.43;;
19800;SDS011;10060;48.274;12.214;2022-12-18T05:29:15;56.70;;;21.40;;
19800;SDS011;10060;48.274;12.214;2022-12-18T05:32:19;65.57;;;24.23;;
19800;SDS011;10060;48.274;12.214;2022-12-18T05:35:21;54.40;;;20.97;;
19800;SDS011;10060;48.274;12.214;2022-12-18T05:38:23;60.97;;;20.63;;
19800;SDS011;10060;48.274;12.214;2022-12-18T05:41:26;52.93;;;19.53;;
19800;SDS011;10060;48.274;12.214;2022-12-18T05:44:28;59.30;;;21.33;;
19800;SDS011;10060;48.274;12.214;2022-12-18T05:47:32;56.07;;;21.20;;
19800;SDS011;10060;48.274;12.214;2022-12-18T05:50:34;54.87;;;21.63;;
19800;SDS011;10060;48.274;12.214;2022-12-18T05:53:37;55.50;;;19.47;;
19800;SDS011;10060;48.274;12.214;2022-12-18T05:56:39;57.40;;;20.97;;
19800;SDS011;10060;48.274;12.214;2022-12-18T05:59:41;64.30;;;23.80;;
19800;SDS011;10060;48.274;12.214;2022-12-18T06:02:47;57.43;;;21.73;;
19800;SDS011;10060;48.274;12.214;2022-12-18T06:05:49;46.77;;;18.27;;
19800;SDS011;10060;48.274;12.214;2022-12-18T06:08:51;51.97;;;19.60;;
19800;SDS011;10060;48.274;12.214;2022-12-18T06:11:54;50.67;;;18.83;;
19800;SDS011;10060;48.274;12.214;2022-12-18T06:14:56;58.20;;;20.80;;
19800;SDS011;10060;48.274;12.214;2022-12-18T06:17:59;55.83;;;21.67;;
19800;SDS011;10060;48.274;12.214;2022-12-18T06:21:02;56.50;;;21.23;;
19800;SDS011;10060;48.274;12.214;2022-12-18T06:24:04;69.40;;;22.13;;
19800;SDS011;10060;48.274;12.214;2022-12-18T06:27:06;66.30;;;20.47;;
19800;SDS011;10060;48.274;12.214;2022-12-18T06:30:09;57.77;;;20.30;;
19800;SDS011;10060;48.274;12.214;2022-12-18T06:33:12;48.13;;;18.23;;
19800;SDS011;10060;48.274;12.214;2022-12-18T06:36:15;44.50;;;17.17;;
19800;SDS011;10060;48.274;12.214;2022-12-18T06:39:17;42.40;;;18.07;;
19800;SDS011;10060;48.274;12.214;2022-12-18T06:42:19;52.70;;;18.40;;
19800;SDS011;10060;48.274;12.214;2022-12-18T06:45:21;53.67;;;20.53;;
19800;SDS011;10060;48.274;12.214;2022-12-18T06:48:25;54.73;;;18.73;;
19800;SDS011;10060;48.274;12.214;2022-12-18T06:51:27;47.00;;;18.47;;
19800;SDS011;10060;48.274;12.214;2022-12-18T06:54:29;60.03;;;21.00;;
19800;SDS011;10060;48.274;12.214;2022-12-18T06:57:31;49.63;;;19.53;;
19800;SDS011;10060;48.274;12.214;2022-12-18T07:00:33;55.97;;;21.17;;
19800;SDS011;10060;48.274;12.214;2022-12-18T07:03:37;63.03;;;22.43;;
19800;SDS011;10060;48.274;12.214;2022-12-18T07:06:39;56.40;;;20.30;;
19800;SDS011;10060;48.274;12.214;2022-12-18T07:09:41;53.43;;;19.33;;
19800;SDS011;10060;48.274;12.214;2022-12-18T07:12:43;51.80;;;19.63;;
19800;SDS011;10060;48.274;12.214;2022-12-18T07:15:46;67.03;;;22.43;;
19800;SDS011;10060;48.274;12.214;2022-12-18T07:18:49;57.67;;;21.63;;
19800;SDS011;10060;48.274;12.214;2022-12-18T07:21:51;60.50;;;21.60;;
19800;SDS011;10060;48.274;12.214;2022-12-18T07:24:54;56.93;;;20.30;;
19800;SDS011;10060;48.274;12.214;2022-12-18T07:27:56;52.40;;;20.10;;
19800;SDS011;10060;48.274;12.214;2022-12-18T07:30:58;52.37;;;22.27;;
19800;SDS011;10060;48.274;12.214;2022-12-18T07:34:05;44.03;;;18.47;;
19800;SDS011;10060;48.274;12.214;2022-12-18T07:37:07;54.77;;;20.97;;
19800;SDS011;10060;48.274;12.214;2022-12-18T07:40:10;56.60;;;20.97;;
19800;SDS011;10060;48.274;12.214;2022-12-18T07:43:12;55.13;;;19.43;;
19800;SDS011;10060;48.274;12.214;2022-12-18T07:46:14;53.03;;;19.43;;
19800;SDS011;10060;48.274;12.214;2022-12-18T07:49:18;48.53;;;19.60;;
19800;SDS011;10060;48.274;12.214;2022-12-18T07:52:20;47.13;;;18.83;;
19800;SDS011;10060;48.274;12.214;2022-12-18T07:55:22;51.20;;;19.50;;
19800;SDS011;10060;48.274;12.214;2022-12-18T07:58:26;48.80;;;18.47;;
19800;SDS011;10060;48.274;12.214;2022-12-18T08:01:28;56.07;;;20.77;;
19800;SDS011;10060;48.274;12.214;2022-12-18T08:04:31;53.30;;;20.63;;
19800;SDS011;10060;48.274;12.214;2022-12-18T08:07:33;40.63;;;15.37;;
19800;SDS011;10060;48.274;12.214;2022-12-18T08:10:36;43.23;;;18.53;;
19800;SDS011;10060;48.274;12.214;2022-12-18T08:13:38;51.50;;;18.63;;
19800;SDS011;10060;48.274;12.214;2022-12-18T08:16:41;49.53;;;19.83;;
19800;SDS011;10060;48.274;12.214;2022-12-18T08:19:44;50.37;;;19.73;;
19800;SDS011;10060;48.274;12.214;2022-12-18T08:22:46;46.27;;;19.30;;
19800;SDS011;10060;48.274;12.214;2022-12-18T08:25:50;41.90;;;18.13;;
19800;SDS011;10060;48.274;12.214;2022-12-18T08:28:53;36.73;;;16.73;;
19800;SDS011;10060;48.274;12.214;2022-12-18T08:31:55;45.67;;;18.90;;
19800;SDS011;10060;48.274;12.214;2022-12-18T08:34:58;52.43;;;19.77;;
19800;SDS011;10060;48.274;12.214;2022-12-18T08:38:01;48.43;;;19.17;;
19800;SDS011;10060;48.274;12.214;2022-12-18T08:41:03;50.07;;;20.80;;
19800;SDS011;10060;48.274;12.214;2022-12-18T08:44:06;51.20;;;21.27;;
19800;SDS011;10060;48.274;12.214;2022-12-18T08:47:26;47.77;;;19.87;;
19800;SDS011;10060;48.274;12.214;2022-12-18T08:50:30;54.90;;;21.43;;
19800;SDS011;10060;48.274;12.214;2022-12-18T08:53:32;49.70;;;20.93;;
19800;SDS011;10060;48.274;12.214;2022-12-18T08:56:34;41.30;;;18.33;;
19800;SDS011;10060;48.274;12.214;2022-12-18T08:59:36;40.67;;;17.13;;
19800;SDS011;10060;48.274;12.214;2022-12-18T09:02:38;41.37;;;17.40;;
19800;SDS011;10060;48.274;12.214;2022-12-18T09:05:41;43.07;;;19.53;;
19800;SDS011;10060;48.274;12.214;2022-12-18T09:08:44;47.63;;;18.40;;
19800;SDS011;10060;48.274;12.214;2022-12-18T09:11:46;50.67;;;19.20;;
19800;SDS011;10060;48.274;12.214;2022-12-18T09:14:48;47.60;;;18.80;;
19800;SDS011;10060;48.274;12.214;2022-12-18T09:17:50;42.50;;;19.53;;
19800;SDS011;10060;48.274;12.214;2022-12-18T09:20:54;45.30;;;20.40;;
19800;SDS011;10060;48.274;12.214;2022-12-18T09:23:56;39.07;;;18.50;;
19800;SDS011;10060;48.274;12.214;2022-12-18T09:26:58;43.07;;;18.23;;
19800;SDS011;10060;48.274;12.214;2022-12-18T09:30:00;40.77;;;16.53;;
19800;SDS011;10060;48.274;12.214;2022-12-18T09:33:02;37.70;;;17.10;;
19800;SDS011;10060;48.274;12.214;2022-12-18T09:36:07;39.00;;;18.03;;
19800;SDS011;10060;48.274;12.214;2022-12-18T09:39:09;39.13;;;17.40;;
19800;SDS011;10060;48.274;12.214;2022-12-18T09:42:12;46.23;;;19.67;;
19800;SDS011;10060;48.274;12.214;2022-12-18T09:45:19;44.60;;;18.47;;
19800;SDS011;10060;48.274;12.214;2022-12-18T09:48:21;39.03;;;17.03;;
19800;SDS011;10060;48.274;12.214;2022-12-18T09:51:27;37.70;;;16.83;;
19800;SDS011;10060;48.274;12.214;2022-12-18T09:54:31;37.10;;;17.90;;
19800;SDS011;10060;48.274;12.214;2022-12-18T09:57:35;38.33;;;16.17;;
19800;SDS011;10060;48.274;12.214;2022-12-18T10:00:41;41.43;;;17.80;;
19800;SDS011;10060;48.274;12.214;2022-12-18T10:03:43;38.43;;;17.00;;
19800;SDS011;10060;48.274;12.214;2022-12-18T10:06:48;36.50;;;16.07;;
19800;SDS011;10060;48.274;12.214;2022-12-18T10:09:53;37.33;;;16.80;;
19800;SDS011;10060;48.274;12.214;2022-12-18T10:13:02;42.77;;;17.50;;
19800;SDS011;10060;48.274;12.214;2022-12-18T10:16:12;38.13;;;17.43;;
19800;SDS011;10060;48.274;12.214;2022-12-18T10:19:21;37.27;;;16.40;;
19800;SDS011;10060;48.274;12.214;2022-12-18T10:22:30;32.90;;;14.23;;
19800;SDS011;10060;48.274;12.214;2022-12-18T10:25:34;34.40;;;15.43;;
19800;SDS011;10060;48.274;12.214;2022-12-18T10:28:38;35.70;;;16.40;;
19800;SDS011;10060;48.274;12.214;2022-12-18T10:31:41;39.87;;;16.53;;
19800;SDS011;10060;48.274;12.214;2022-12-18T10:34:47;46.53;;;17.83;;
19800;SDS011;10060;48.274;12.214;2022-12-18T10:38:00;38.33;;;15.67;;
19800;SDS011;10060;48.274;12.214;2022-12-18T10:41:03;38.57;;;16.43;;
19800;SDS011;10060;48.274;12.214;2022-12-18T10:44:10;36.43;;;15.33;;
19800;SDS011;10060;48.274;12.214;2022-12-18T10:47:14;36.63;;;15.27;;
19800;SDS011;10060;48.274;12.214;2022-12-18T10:50:20;35.70;;;16.00;;
19800;SDS011;10060;48.274;12.214;2022-12-18T10:53:27;29.27;;;14.83;;
19800;SDS011;10060;48.274;12.214;2022-12-18T10:56:30;40.10;;;16.60;;
19800;SDS011;10060;48.274;12.214;2022-12-18T10:59:32;38.17;;;16.00;;
19800;SDS011;10060;48.274;12.214;2022-12-18T11:02:51;40.60;;;16.90;;
19800;SDS011;10060;48.274;12.214;2022-12-18T11:06:00;32.43;;;16.27;;
19800;SDS011;10060;48.274;12.214;2022-12-18T11:09:04;34.17;;;16.03;;
19800;SDS011;10060;48.274;12.214;2022-12-18T11:12:14;38.57;;;16.53;;
19800;SDS011;10060;48.274;12.214;2022-12-18T11:15:18;35.47;;;15.97;;
19800;SDS011;10060;48.274;12.214;2022-12-18T11:18:22;38.13;;;17.53;;
19800;SDS011;10060;48.274;12.214;2022-12-18T11:21:26;37.40;;;18.37;;
19800;SDS011;10060;48.274;12.214;2022-12-18T11:24:31;38.40;;;16.50;;
19800;SDS011;10060;48.274;12.214;2022-12-18T11:27:33;38.00;;;15.90;;
19800;SDS011;10060;48.274;12.214;2022-12-18T11:30:36;38.07;;;16.63;;
19800;SDS011;10060;48.274;12.214;2022-12-18T11:33:39;36.53;;;17.60;;
19800;SDS011;10060;48.274;12.214;2022-12-18T11:36:44;37.70;;;16.80;;
19800;SDS011;10060;48.274;12.214;2022-12-18T11:39:49;45.10;;;17.10;;
19800;SDS011;10060;48.274;12.214;2022-12-18T11:42:53;41.10;;;19.53;;
19800;SDS011;10060;48.274;12.214;2022-12-18T11:45:59;47.20;;;20.10;;
19800;SDS011;10060;48.274;12.214;2022-12-18T11:49:03;46.00;;;18.87;;
19800;SDS011;10060;48.274;12.214;2022-12-18T11:52:09;43.70;;;18.97;;
19800;SDS011;10060;48.274;12.214;2022-12-18T11:55:14;46.60;;;16.73;;
19800;SDS011;10060;48.274;12.214;2022-12-18T11:58:19;38.50;;;18.27;;
19800;SDS011;10060;48.274;12.214;2022-12-18T12:01:29;42.10;;;18.23;;
19800;SDS011;10060;48.274;12.214;2022-12-18T12:04:43;40.30;;;16.93;;
19800;SDS011;10060;48.274;12.214;2022-12-18T12:07:47;42.20;;;17.40;;
19800;SDS011;10060;48.274;12.214;2022-12-18T12:10:55;41.30;;;17.00;;
19800;SDS011;10060;48.274;12.214;2022-12-18T12:14:04;41.13;;;17.90;;
19800;SDS011;10060;48.274;12.214;2022-12-18T12:17:10;38.03;;;15.60;;
19800;SDS011;10060;48.274;12.214;2022-12-18T12:20:15;32.93;;;15.67;;
19800;SDS011;10060;48.274;12.214;2022-12-18T12:23:22;41.27;;;18.63;;
19800;SDS011;10060;48.274;12.214;2022-12-18T12:26:30;43.53;;;18.50;;
19800;SDS011;10060;48.274;12.214;2022-12-18T12:29:38;37.40;;;16.77;;
19800;SDS011;10060;48.274;12.214;2022-12-18T12:32:47;38.00;;;17.93;;
19800;SDS011;10060;48.274;12.214;2022-12-18T12:35:51;40.27;;;17.00;;
19800;SDS011;10060;48.274;12.214;2022-12-18T12:38:57;45.67;;;18.70;;
19800;SDS011;10060;48.274;12.214;2022-12-18T12:42:02;39.87;;;18.87;;
19800;SDS011;10060;48.274;12.214;2022-12-18T12:45:25;45.03;;;19.03;;
19800;SDS011;10060;48.274;12.214;2022-12-18T12:48:37;39.33;;;18.00;;
19800;SDS011;10060;48.274;12.214;2022-12-18T12:51:43;31.73;;;16.37;;
19800;SDS011;10060;48.274;12.214;2022-12-18T12:54:46;46.57;;;18.73;;
19800;SDS011;10060;48.274;12.214;2022-12-18T12:57:54;40.53;;;17.77;;
19800;SDS011;10060;48.274;12.214;2022-12-18T13:00:59;38.33;;;17.60;;
19800;SDS011;10060;48.274;12.214;2022-12-18T13:04:08;42.77;;;17.30;;
19800;SDS011;10060;48.274;12.214;2022-12-18T13:07:15;37.00;;;17.37;;
19800;SDS011;10060;48.274;12.214;2022-12-18T13:10:26;38.87;;;18.40;;
19800;SDS011;10060;48.274;12.214;2022-12-18T13:13:29;38.67;;;17.63;;
19800;SDS011;10060;48.274;12.214;2022-12-18T13:16:49;37.10;;;17.87;;
19800;SDS011;10060;48.274;12.214;2022-12-18T13:19:52;38.10;;;17.37;;
19800;SDS011;10060;48.274;12.214;2022-12-18T13:23:19;41.03;;;17.53;;
19800;SDS011;10060;48.274;12.214;2022-12-18T13:26:28;38.37;;;15.40;;
19800;SDS011;10060;48.274;12.214;2022-12-18T13:29:42;38.53;;;16.90;;
19800;SDS011;10060;48.274;12.214;2022-12-18T13:32:44;39.10;;;17.77;;
19800;SDS011;10060;48.274;12.214;2022-12-18T13:35:51;40.67;;;16.83;;
19800;SDS011;10060;48.274;12.214;2022-12-18T13:46:03;41.57;;;18.23;;
19800;SDS011;10060;48.274;12.214;2022-12-18T13:49:14;39.63;;;18.77;;
19800;SDS011;10060;48.274;12.214;2022-12-18T13:52:19;38.80;;;17.70;;
19800;SDS011;10060;48.274;12.214;2022-12-18T13:55:22;42.97;;;20.67;;
19800;SDS011;10060;48.274;12.214;2022-12-18T13:58:25;41.63;;;18.37;;
19800;SDS011;10060;48.274;12.214;2022-12-18T14:01:28;44.30;;;18.27;;
19800;SDS011;10060;48.274;12.214;2022-12-18T14:04:31;38.33;;;17.00;;
19800;SDS011;10060;48.274;12.214;2022-12-18T14:07:34;39.77;;;18.03;;
19800;SDS011;10060;48.274;12.214;2022-12-18T14:10:39;35.90;;;17.23;;
19800;SDS011;10060;48.274;12.214;2022-12-18T14:13:41;41.73;;;17.83;;
19800;SDS011;10060;48.274;12.214;2022-12-18T14:16:45;35.63;;;17.00;;
19800;SDS011;10060;48.274;12.214;2022-12-18T14:19:48;47.33;;;19.23;;
19800;SDS011;10060;48.274;12.214;2022-12-18T14:22:51;39.37;;;17.27;;
19800;SDS011;10060;48.274;12.214;2022-12-18T14:25:53;45.77;;;19.00;;
19800;SDS011;10060;48.274;12.214;2022-12-18T14:28:55;44.27;;;18.53;;
19800;SDS011;10060;48.274;12.214;2022-12-18T14:32:06;44.03;;;19.10;;
19800;SDS011;10060;48.274;12.214;2022-12-18T14:35:12;40.23;;;17.90;;
19800;SDS011;10060;48.274;12.214;2022-12-18T14:38:21;40.23;;;17.97;;
19800;SDS011;10060;48.274;12.214;2022-12-18T14:41:23;46.23;;;18.57;;
19800;SDS011;10060;48.274;12.214;2022-12-18T14:44:26;45.00;;;19.30;;
19800;SDS011;10060;48.274;12.214;2022-12-18T14:47:29;46.33;;;18.97;;
19800;SDS011;10060;48.274;12.214;2022-12-18T14:50:31;44.23;;;18.80;;
19800;SDS011;10060;48.274;12.214;2022-12-18T14:53:35;41.40;;;18.20;;
19800;SDS011;10060;48.274;12.214;2022-12-18T14:56:43;42.93;;;18.23;;
19800;SDS011;10060;48.274;12.214;2022-12-18T14:59:46;38.33;;;17.27;;
19800;SDS011;10060;48.274;12.214;2022-12-18T15:02:50;42.33;;;19.07;;
19800;SDS011;10060;48.274;12.214;2022-12-18T15:05:52;39.77;;;18.17;;
19800;SDS011;10060;48.274;12.214;2022-12-18T15:08:55;41.90;;;17.97;;
19800;SDS011;10060;48.274;12.214;2022-12-18T15:11:57;43.33;;;17.67;;
19800;SDS011;10060;48.274;12.214;2022-12-18T15:15:00;49.33;;;19.37;;
19800;SDS011;10060;48.274;12.214;2022-12-18T15:18:04;42.37;;;18.57;;
19800;SDS011;10060;48.274;12.214;2022-12-18T15:21:08;45.37;;;20.43;;
19800;SDS011;10060;48.274;12.214;2022-12-18T15:24:15;41.53;;;18.73;;
19800;SDS011;10060;48.274;12.214;2022-12-18T15:27:20;40.40;;;18.43;;
19800;SDS011;10060;48.274;12.214;2022-12-18T15:30:23;43.97;;;18.40;;
19800;SDS011;10060;48.274;12.214;2022-12-18T15:33:29;41.00;;;18.47;;
19800;SDS011;10060;48.274;12.214;2022-12-18T15:36:32;37.57;;;16.60;;
19800;SDS011;10060;48.274;12.214;2022-12-18T15:39:36;40.67;;;18.40;;
19800;SDS011;10060;48.274;12.214;2022-12-18T15:42:38;40.77;;;19.73;;
19800;SDS011;10060;48.274;12.214;2022-12-18T15:45:58;43.87;;;18.47;;
19800;SDS011;10060;48.274;12.214;2022-12-18T15:49:02;40.43;;;18.60;;
19800;SDS011;10060;48.274;12.214;2022-12-18T15:52:04;45.57;;;19.03;;
19800;SDS011;10060;48.274;12.214;2022-12-18T15:55:08;40.80;;;19.17;;
19800;SDS011;10060;48.274;12.214;2022-12-18T15:58:29;46.60;;;19.07;;
19800;SDS011;10060;48.274;12.214;2022-12-18T16:01:32;44.77;;;18.27;;
19800;SDS011;10060;48.274;12.214;2022-12-18T16:04:36;37.37;;;17.50;;
19800;SDS011;10060;48.274;12.214;2022-12-18T16:07:38;50.30;;;20.23;;
19800;SDS011;10060;48.274;12.214;2022-12-18T16:10:40;41.63;;;18.37;;
19800;SDS011;10060;48.274;12.214;2022-12-18T16:13:42;39.80;;;18.30;;
19800;SDS011;10060;48.274;12.214;2022-12-18T16:16:45;42.93;;;18.53;;
19800;SDS011;10060;48.274;12.214;2022-12-18T16:19:48;43.27;;;18.87;;
19800;SDS011;10060;48.274;12.214;2022-12-18T16:22:50;46.93;;;21.20;;
19800;SDS011;10060;48.274;12.214;2022-12-18T16:25:53;42.63;;;19.43;;
19800;SDS011;10060;48.274;12.214;2022-12-18T16:28:55;44.40;;;19.77;;
19800;SDS011;10060;48.274;12.214;2022-12-18T16:31:58;43.30;;;18.97;;
19800;SDS011;10060;48.274;12.214;2022-12-18T16:35:01;43.63;;;20.27;;
19800;SDS011;10060;48.274;12.214;2022-12-18T16:38:04;45.37;;;19.87;;
19800;SDS011;10060;48.274;12.214;2022-12-18T16:41:06;39.70;;;19.67;;
19800;SDS011;10060;48.274;12.214;2022-12-18T16:44:32;51.17;;;19.57;;
19800;SDS011;10060;48.274;12.214;2022-12-18T16:47:34;47.63;;;21.17;;
19800;SDS011;10060;48.274;12.214;2022-12-18T16:50:38;41.90;;;20.73;;
19800;SDS011;10060;48.274;12.214;2022-12-18T16:53:40;51.93;;;21.97;;
19800;SDS011;10060;48.274;12.214;2022-12-18T16:56:42;48.80;;;22.80;;
19800;SDS011;10060;48.274;12.214;2022-12-18T16:59:46;56.17;;;24.00;;
19800;SDS011;10060;48.274;12.214;2022-12-18T17:02:48;52.13;;;22.07;;
19800;SDS011;10060;48.274;12.214;2022-12-18T17:05:51;54.77;;;24.03;;
19800;SDS011;10060;48.274;12.214;2022-12-18T17:08:54;48.87;;;22.73;;
19800;SDS011;10060;48.274;12.214;2022-12-18T17:11:57;50.70;;;23.87;;
19800;SDS011;10060;48.274;12.214;2022-12-18T17:14:59;54.83;;;24.10;;
19800;SDS011;10060;48.274;12.214;2022-12-18T17:18:01;51.87;;;24.87;;
19800;SDS011;10060;48.274;12.214;2022-12-18T17:21:05;56.03;;;25.13;;
19800;SDS011;10060;48.274;12.214;2022-12-18T17:24:08;69.43;;;27.40;;
19800;SDS011;10060;48.274;12.214;2022-12-18T17:27:10;49.63;;;23.07;;
19800;SDS011;10060;48.274;12.214;2022-12-18T17:30:13;46.20;;;21.80;;
19800;SDS011;10060;48.274;12.214;2022-12-18T17:33:15;49.60;;;22.50;;
19800;SDS011;10060;48.274;12.214;2022-12-18T17:36:19;56.70;;;23.47;;
19800;SDS011;10060;48.274;12.214;2022-12-18T17:39:21;56.53;;;23.40;;
19800;SDS011;10060;48.274;12.214;2022-12-18T17:42:23;64.10;;;26.60;;
19800;SDS011;10060;48.274;12.214;2022-12-18T17:45:25;73.67;;;29.50;;
19800;SDS011;10060;48.274;12.214;2022-12-18T17:48:28;71.53;;;29.97;;